Upstream stations:
Downstream station:
SHEF ID: WICK1 ARKANSAS R NR MAIZE, KS
STATION TYPE:
PRECIP STAGE RIV-FLOW BAT-LOAD
in ft cfs volt
Ccp-Rev Ccp-Rev Ccp-Rev Ccp-Rev
(US/Central)
02/27 00:00 0.00 5.36 206 12.33
02/27 01:00 0.00 5.35 204 12.33
02/27 02:00 0.00 5.34 202 12.25
02/27 03:00 0.00 5.32 198 12.25
02/27 04:00 0.00 5.31 195 12.17
02/27 05:00 0.00 5.28 189 12.17
02/27 06:00 0.00 5.26 185 12.17
02/27 07:00 0.00 5.25 183 12.09
02/27 08:00 0.00 5.24 181 12.09
02/27 09:00 0.00 5.23 178 12.57
02/27 10:00 0.00 5.23 178 13.68
02/27 11:00 0.00 5.22 176 13.84
02/27 12:00 0.00 5.21 174 13.92
02/27 13:00 0.00 5.22 176 13.60
02/27 14:00 0.00 5.22 176 13.53
02/27 15:00 0.00 5.24 181 13.53
02/27 16:00 0.00 5.25 183 13.44
02/27 17:00 0.00 5.26 185 13.44
02/27 18:00 0.00 5.28 189 13.44
02/27 19:00 0.00 5.30 193 13.21
02/27 20:00 0.00 5.30 193 12.57
02/27 21:00 0.00 5.30 193 12.41
02/27 22:00 0.00 5.30 193 12.41
02/27 23:00 0.00 5.28 189 12.41